sensor_id;sensor_type;location;lat;lon;timestamp;P1;durP1;ratioP1;P2;durP2;ratioP2
8702;SDS011;9002;42.708;23.186;2024-01-10T00:01:43;2.67;;;2.08;;
8702;SDS011;9002;42.708;23.186;2024-01-10T00:04:10;3.25;;;1.60;;
8702;SDS011;9002;42.708;23.186;2024-01-10T00:06:37;3.45;;;1.75;;
8702;SDS011;9002;42.708;23.186;2024-01-10T00:09:04;3.30;;;2.83;;
8702;SDS011;9002;42.708;23.186;2024-01-10T00:11:32;3.00;;;2.10;;
8702;SDS011;9002;42.708;23.186;2024-01-10T00:13:59;4.55;;;3.03;;
8702;SDS011;9002;42.708;23.186;2024-01-10T00:16:28;5.53;;;1.50;;
8702;SDS011;9002;42.708;23.186;2024-01-10T00:18:55;4.80;;;1.83;;
8702;SDS011;9002;42.708;23.186;2024-01-10T00:21:22;6.03;;;3.42;;
8702;SDS011;9002;42.708;23.186;2024-01-10T00:23:49;3.35;;;1.45;;
8702;SDS011;9002;42.708;23.186;2024-01-10T00:26:16;3.80;;;2.28;;
8702;SDS011;9002;42.708;23.186;2024-01-10T00:28:44;2.88;;;1.35;;
8702;SDS011;9002;42.708;23.186;2024-01-10T00:31:12;4.40;;;2.47;;
8702;SDS011;9002;42.708;23.186;2024-01-10T00:33:39;5.05;;;2.35;;
8702;SDS011;9002;42.708;23.186;2024-01-10T00:36:06;5.10;;;2.85;;
8702;SDS011;9002;42.708;23.186;2024-01-10T00:38:33;2.67;;;1.58;;
8702;SDS011;9002;42.708;23.186;2024-01-10T00:41:00;2.85;;;1.98;;
8702;SDS011;9002;42.708;23.186;2024-01-10T00:43:28;4.68;;;1.92;;
8702;SDS011;9002;42.708;23.186;2024-01-10T00:45:56;3.20;;;1.55;;
8702;SDS011;9002;42.708;23.186;2024-01-10T00:48:23;5.03;;;2.67;;
8702;SDS011;9002;42.708;23.186;2024-01-10T00:50:50;3.33;;;2.30;;
8702;SDS011;9002;42.708;23.186;2024-01-10T00:53:17;3.17;;;2.63;;
8702;SDS011;9002;42.708;23.186;2024-01-10T00:55:44;3.25;;;2.00;;
8702;SDS011;9002;42.708;23.186;2024-01-10T00:58:11;4.38;;;4.00;;
8702;SDS011;9002;42.708;23.186;2024-01-10T01:00:38;3.75;;;2.33;;
8702;SDS011;9002;42.708;23.186;2024-01-10T01:03:06;3.40;;;2.67;;
8702;SDS011;9002;42.708;23.186;2024-01-10T01:05:33;3.28;;;2.72;;
8702;SDS011;9002;42.708;23.186;2024-01-10T01:08:00;3.42;;;1.92;;
8702;SDS011;9002;42.708;23.186;2024-01-10T01:10:27;4.25;;;1.58;;
8702;SDS011;9002;42.708;23.186;2024-01-10T01:12:54;3.55;;;2.55;;
8702;SDS011;9002;42.708;23.186;2024-01-10T01:15:21;2.90;;;2.10;;
8702;SDS011;9002;42.708;23.186;2024-01-10T01:17:48;4.32;;;2.33;;
8702;SDS011;9002;42.708;23.186;2024-01-10T01:20:16;3.70;;;2.45;;
8702;SDS011;9002;42.708;23.186;2024-01-10T01:22:43;3.30;;;1.13;;
8702;SDS011;9002;42.708;23.186;2024-01-10T01:25:10;3.30;;;3.00;;
8702;SDS011;9002;42.708;23.186;2024-01-10T01:27:37;5.55;;;2.78;;
8702;SDS011;9002;42.708;23.186;2024-01-10T01:30:05;4.07;;;2.65;;
8702;SDS011;9002;42.708;23.186;2024-01-10T01:32:33;3.50;;;2.33;;
8702;SDS011;9002;42.708;23.186;2024-01-10T01:35:00;4.68;;;3.33;;
8702;SDS011;9002;42.708;23.186;2024-01-10T01:40:13;3.10;;;1.45;;
8702;SDS011;9002;42.708;23.186;2024-01-10T01:42:40;4.47;;;2.78;;
8702;SDS011;9002;42.708;23.186;2024-01-10T01:45:07;6.00;;;2.30;;
8702;SDS011;9002;42.708;23.186;2024-01-10T01:47:35;3.85;;;2.10;;
8702;SDS011;9002;42.708;23.186;2024-01-10T01:50:02;4.13;;;2.95;;
8702;SDS011;9002;42.708;23.186;2024-01-10T01:52:29;3.67;;;3.03;;
8702;SDS011;9002;42.708;23.186;2024-01-10T01:54:56;3.03;;;2.03;;
8702;SDS011;9002;42.708;23.186;2024-01-10T01:57:25;4.68;;;2.15;;
8702;SDS011;9002;42.708;23.186;2024-01-10T01:59:52;6.63;;;3.72;;
8702;SDS011;9002;42.708;23.186;2024-01-10T02:02:19;4.43;;;3.00;;
8702;SDS011;9002;42.708;23.186;2024-01-10T02:04:48;5.00;;;3.10;;
8702;SDS011;9002;42.708;23.186;2024-01-10T02:07:15;4.28;;;2.38;;
8702;SDS011;9002;42.708;23.186;2024-01-10T02:09:42;3.35;;;2.45;;
8702;SDS011;9002;42.708;23.186;2024-01-10T02:12:09;3.85;;;2.13;;
8702;SDS011;9002;42.708;23.186;2024-01-10T02:14:38;4.45;;;3.45;;
8702;SDS011;9002;42.708;23.186;2024-01-10T02:17:05;6.72;;;2.05;;
8702;SDS011;9002;42.708;23.186;2024-01-10T02:19:32;3.45;;;3.15;;
8702;SDS011;9002;42.708;23.186;2024-01-10T02:22:00;5.18;;;2.88;;
8702;SDS011;9002;42.708;23.186;2024-01-10T02:24:28;5.97;;;3.13;;
8702;SDS011;9002;42.708;23.186;2024-01-10T02:26:56;2.47;;;1.98;;
8702;SDS011;9002;42.708;23.186;2024-01-10T02:29:23;3.08;;;1.70;;
8702;SDS011;9002;42.708;23.186;2024-01-10T02:31:50;3.35;;;2.47;;
8702;SDS011;9002;42.708;23.186;2024-01-10T02:34:17;2.75;;;1.20;;
8702;SDS011;9002;42.708;23.186;2024-01-10T02:39:12;2.30;;;1.02;;
8702;SDS011;9002;42.708;23.186;2024-01-10T02:41:39;2.30;;;0.98;;
8702;SDS011;9002;42.708;23.186;2024-01-10T02:44:08;3.30;;;2.22;;
8702;SDS011;9002;42.708;23.186;2024-01-10T02:46:35;2.58;;;1.50;;
8702;SDS011;9002;42.708;23.186;2024-01-10T02:49:02;3.25;;;1.50;;
8702;SDS011;9002;42.708;23.186;2024-01-10T02:51:29;5.90;;;1.30;;
8702;SDS011;9002;42.708;23.186;2024-01-10T02:53:57;2.65;;;1.10;;
8702;SDS011;9002;42.708;23.186;2024-01-10T02:56:24;2.92;;;1.25;;
8702;SDS011;9002;42.708;23.186;2024-01-10T02:58:51;3.85;;;1.17;;
8702;SDS011;9002;42.708;23.186;2024-01-10T03:01:20;3.72;;;1.77;;
8702;SDS011;9002;42.708;23.186;2024-01-10T03:03:47;4.60;;;2.70;;
8702;SDS011;9002;42.708;23.186;2024-01-10T03:06:14;4.50;;;2.85;;
8702;SDS011;9002;42.708;23.186;2024-01-10T03:08:41;3.55;;;2.00;;
8702;SDS011;9002;42.708;23.186;2024-01-10T03:11:07;3.75;;;2.50;;
8702;SDS011;9002;42.708;23.186;2024-01-10T03:13:34;4.55;;;2.00;;
8702;SDS011;9002;42.708;23.186;2024-01-10T03:16:03;2.78;;;2.40;;
8702;SDS011;9002;42.708;23.186;2024-01-10T03:20:58;2.30;;;1.95;;
8702;SDS011;9002;42.708;23.186;2024-01-10T03:23:25;3.28;;;2.03;;
8702;SDS011;9002;42.708;23.186;2024-01-10T03:28:19;2.00;;;1.13;;
8702;SDS011;9002;42.708;23.186;2024-01-10T03:30:46;3.38;;;1.80;;
8702;SDS011;9002;42.708;23.186;2024-01-10T03:33:13;3.53;;;1.75;;
8702;SDS011;9002;42.708;23.186;2024-01-10T03:35:42;4.22;;;3.50;;
8702;SDS011;9002;42.708;23.186;2024-01-10T03:38:08;5.25;;;1.92;;
8702;SDS011;9002;42.708;23.186;2024-01-10T03:40:35;6.45;;;3.67;;
8702;SDS011;9002;42.708;23.186;2024-01-10T03:43:02;4.10;;;2.00;;
8702;SDS011;9002;42.708;23.186;2024-01-10T03:45:30;4.45;;;2.53;;
8702;SDS011;9002;42.708;23.186;2024-01-10T03:47:59;4.35;;;2.90;;
8702;SDS011;9002;42.708;23.186;2024-01-10T03:50:26;4.50;;;2.20;;
8702;SDS011;9002;42.708;23.186;2024-01-10T03:52:54;4.47;;;2.72;;
8702;SDS011;9002;42.708;23.186;2024-01-10T03:55:21;6.28;;;4.22;;
8702;SDS011;9002;42.708;23.186;2024-01-10T03:57:48;5.22;;;1.83;;
8702;SDS011;9002;42.708;23.186;2024-01-10T04:00:15;2.80;;;2.50;;
8702;SDS011;9002;42.708;23.186;2024-01-10T04:02:43;4.68;;;2.05;;
8702;SDS011;9002;42.708;23.186;2024-01-10T04:05:10;3.40;;;3.13;;
8702;SDS011;9002;42.708;23.186;2024-01-10T04:07:39;3.45;;;2.67;;
8702;SDS011;9002;42.708;23.186;2024-01-10T04:10:09;3.97;;;2.28;;
8702;SDS011;9002;42.708;23.186;2024-01-10T04:12:36;2.88;;;1.50;;
8702;SDS011;9002;42.708;23.186;2024-01-10T04:15:04;3.00;;;1.67;;
8702;SDS011;9002;42.708;23.186;2024-01-10T04:17:32;3.45;;;2.78;;
8702;SDS011;9002;42.708;23.186;2024-01-10T04:19:59;7.45;;;2.30;;
8702;SDS011;9002;42.708;23.186;2024-01-10T04:22:26;4.03;;;2.05;;
8702;SDS011;9002;42.708;23.186;2024-01-10T04:24:53;2.83;;;2.40;;
8702;SDS011;9002;42.708;23.186;2024-01-10T04:27:21;4.03;;;1.88;;
8702;SDS011;9002;42.708;23.186;2024-01-10T04:29:48;2.63;;;1.73;;
8702;SDS011;9002;42.708;23.186;2024-01-10T04:32:15;4.28;;;2.75;;
8702;SDS011;9002;42.708;23.186;2024-01-10T04:34:42;3.20;;;1.52;;
8702;SDS011;9002;42.708;23.186;2024-01-10T04:37:09;2.58;;;2.03;;
8702;SDS011;9002;42.708;23.186;2024-01-10T04:39:36;4.15;;;2.28;;
8702;SDS011;9002;42.708;23.186;2024-01-10T04:42:05;3.50;;;2.35;;
8702;SDS011;9002;42.708;23.186;2024-01-10T04:44:34;3.50;;;2.67;;
8702;SDS011;9002;42.708;23.186;2024-01-10T04:47:01;4.45;;;2.85;;
8702;SDS011;9002;42.708;23.186;2024-01-10T04:49:28;5.40;;;2.92;;
8702;SDS011;9002;42.708;23.186;2024-01-10T04:51:55;4.78;;;3.00;;
8702;SDS011;9002;42.708;23.186;2024-01-10T04:54:22;4.00;;;2.30;;
8702;SDS011;9002;42.708;23.186;2024-01-10T04:56:49;4.93;;;2.83;;
8702;SDS011;9002;42.708;23.186;2024-01-10T04:59:16;3.63;;;2.47;;
8702;SDS011;9002;42.708;23.186;2024-01-10T05:01:45;4.63;;;2.47;;
8702;SDS011;9002;42.708;23.186;2024-01-10T05:04:12;5.22;;;2.47;;
8702;SDS011;9002;42.708;23.186;2024-01-10T05:06:39;4.03;;;2.00;;
8702;SDS011;9002;42.708;23.186;2024-01-10T05:09:06;8.90;;;2.47;;
8702;SDS011;9002;42.708;23.186;2024-01-10T05:11:34;4.38;;;2.20;;
8702;SDS011;9002;42.708;23.186;2024-01-10T05:14:02;3.60;;;1.92;;
8702;SDS011;9002;42.708;23.186;2024-01-10T05:19:00;2.35;;;1.60;;
8702;SDS011;9002;42.708;23.186;2024-01-10T05:21:28;4.72;;;2.85;;
8702;SDS011;9002;42.708;23.186;2024-01-10T05:23:55;2.90;;;2.35;;
8702;SDS011;9002;42.708;23.186;2024-01-10T05:28:49;4.07;;;2.83;;
8702;SDS011;9002;42.708;23.186;2024-01-10T05:31:16;5.00;;;1.83;;
8702;SDS011;9002;42.708;23.186;2024-01-10T05:33:43;3.58;;;2.67;;
8702;SDS011;9002;42.708;23.186;2024-01-10T05:36:12;7.97;;;2.58;;
8702;SDS011;9002;42.708;23.186;2024-01-10T05:38:39;3.75;;;2.83;;
8702;SDS011;9002;42.708;23.186;2024-01-10T05:41:06;4.45;;;2.55;;
8702;SDS011;9002;42.708;23.186;2024-01-10T05:43:33;4.30;;;1.95;;
8702;SDS011;9002;42.708;23.186;2024-01-10T05:46:00;4.32;;;2.28;;
8702;SDS011;9002;42.708;23.186;2024-01-10T05:48:29;6.60;;;2.55;;
8702;SDS011;9002;42.708;23.186;2024-01-10T05:50:57;5.75;;;3.13;;
8702;SDS011;9002;42.708;23.186;2024-01-10T05:53:25;3.85;;;2.05;;
8702;SDS011;9002;42.708;23.186;2024-01-10T05:55:52;4.20;;;2.40;;
8702;SDS011;9002;42.708;23.186;2024-01-10T05:58:19;5.20;;;2.72;;
8702;SDS011;9002;42.708;23.186;2024-01-10T06:00:46;5.80;;;3.45;;
8702;SDS011;9002;42.708;23.186;2024-01-10T06:03:13;3.33;;;2.88;;
8702;SDS011;9002;42.708;23.186;2024-01-10T06:05:40;4.53;;;2.45;;
8702;SDS011;9002;42.708;23.186;2024-01-10T06:08:07;6.05;;;3.45;;
8702;SDS011;9002;42.708;23.186;2024-01-10T06:10:36;4.05;;;2.47;;
8702;SDS011;9002;42.708;23.186;2024-01-10T06:13:03;3.42;;;2.58;;
8702;SDS011;9002;42.708;23.186;2024-01-10T06:15:30;4.80;;;3.00;;
8702;SDS011;9002;42.708;23.186;2024-01-10T06:17:57;3.67;;;2.88;;
8702;SDS011;9002;42.708;23.186;2024-01-10T06:20:24;5.05;;;2.80;;
8702;SDS011;9002;42.708;23.186;2024-01-10T06:22:51;3.17;;;1.45;;
8702;SDS011;9002;42.708;23.186;2024-01-10T06:25:18;2.50;;;1.70;;
8702;SDS011;9002;42.708;23.186;2024-01-10T06:27:50;4.10;;;2.85;;
8702;SDS011;9002;42.708;23.186;2024-01-10T06:30:17;4.18;;;1.80;;
8702;SDS011;9002;42.708;23.186;2024-01-10T06:32:44;4.88;;;3.72;;
8702;SDS011;9002;42.708;23.186;2024-01-10T06:35:11;5.78;;;3.97;;
8702;SDS011;9002;42.708;23.186;2024-01-10T06:37:38;6.07;;;3.40;;
8702;SDS011;9002;42.708;23.186;2024-01-10T06:42:34;5.60;;;2.38;;
8702;SDS011;9002;42.708;23.186;2024-01-10T06:45:04;3.88;;;2.80;;
8702;SDS011;9002;42.708;23.186;2024-01-10T06:47:32;5.20;;;3.20;;
8702;SDS011;9002;42.708;23.186;2024-01-10T06:50:00;5.70;;;3.20;;
8702;SDS011;9002;42.708;23.186;2024-01-10T06:52:29;3.60;;;2.40;;
8702;SDS011;9002;42.708;23.186;2024-01-10T06:54:56;4.93;;;2.00;;
8702;SDS011;9002;42.708;23.186;2024-01-10T06:57:23;5.82;;;2.42;;
8702;SDS011;9002;42.708;23.186;2024-01-10T06:59:52;5.18;;;2.47;;
8702;SDS011;9002;42.708;23.186;2024-01-10T07:02:20;7.95;;;4.65;;
8702;SDS011;9002;42.708;23.186;2024-01-10T07:04:49;6.07;;;2.95;;
8702;SDS011;9002;42.708;23.186;2024-01-10T07:07:16;5.07;;;2.63;;
8702;SDS011;9002;42.708;23.186;2024-01-10T07:12:11;3.53;;;1.98;;
8702;SDS011;9002;42.708;23.186;2024-01-10T07:17:16;4.07;;;3.08;;
8702;SDS011;9002;42.708;23.186;2024-01-10T07:20:20;7.78;;;2.33;;
8702;SDS011;9002;42.708;23.186;2024-01-10T07:23:10;8.68;;;3.65;;
8702;SDS011;9002;42.708;23.186;2024-01-10T07:26:29;4.80;;;2.88;;
8702;SDS011;9002;42.708;23.186;2024-01-10T07:29:22;6.75;;;3.58;;
8702;SDS011;9002;42.708;23.186;2024-01-10T07:32:01;3.33;;;1.60;;
8702;SDS011;9002;42.708;23.186;2024-01-10T07:36:57;5.10;;;1.70;;
8702;SDS011;9002;42.708;23.186;2024-01-10T07:39:24;2.67;;;2.00;;
8702;SDS011;9002;42.708;23.186;2024-01-10T07:41:51;8.20;;;3.33;;
8702;SDS011;9002;42.708;23.186;2024-01-10T07:44:18;7.28;;;3.08;;
8702;SDS011;9002;42.708;23.186;2024-01-10T07:46:45;7.07;;;1.67;;
8702;SDS011;9002;42.708;23.186;2024-01-10T07:49:12;4.70;;;2.13;;
8702;SDS011;9002;42.708;23.186;2024-01-10T07:51:43;3.05;;;1.52;;
8702;SDS011;9002;42.708;23.186;2024-01-10T07:54:10;4.03;;;2.22;;
8702;SDS011;9002;42.708;23.186;2024-01-10T07:56:37;3.03;;;1.98;;
8702;SDS011;9002;42.708;23.186;2024-01-10T07:59:05;4.68;;;2.70;;
8702;SDS011;9002;42.708;23.186;2024-01-10T08:01:32;2.70;;;1.30;;
8702;SDS011;9002;42.708;23.186;2024-01-10T08:03:59;4.22;;;2.70;;
8702;SDS011;9002;42.708;23.186;2024-01-10T08:06:26;3.30;;;2.78;;
8702;SDS011;9002;42.708;23.186;2024-01-10T08:08:54;5.97;;;2.97;;
8702;SDS011;9002;42.708;23.186;2024-01-10T08:11:21;3.97;;;2.22;;
8702;SDS011;9002;42.708;23.186;2024-01-10T08:13:49;4.68;;;2.53;;
8702;SDS011;9002;42.708;23.186;2024-01-10T08:16:17;3.35;;;1.40;;
8702;SDS011;9002;42.708;23.186;2024-01-10T08:21:19;4.00;;;2.65;;
8702;SDS011;9002;42.708;23.186;2024-01-10T08:23:46;4.43;;;3.47;;
8702;SDS011;9002;42.708;23.186;2024-01-10T08:26:14;7.18;;;3.30;;
8702;SDS011;9002;42.708;23.186;2024-01-10T08:28:41;6.03;;;4.28;;
8702;SDS011;9002;42.708;23.186;2024-01-10T08:31:08;5.63;;;3.08;;
8702;SDS011;9002;42.708;23.186;2024-01-10T08:33:37;8.18;;;3.67;;
8702;SDS011;9002;42.708;23.186;2024-01-10T08:36:05;4.90;;;2.92;;
8702;SDS011;9002;42.708;23.186;2024-01-10T08:38:32;7.75;;;3.70;;
8702;SDS011;9002;42.708;23.186;2024-01-10T08:41:00;5.25;;;3.08;;
8702;SDS011;9002;42.708;23.186;2024-01-10T08:43:29;8.38;;;3.72;;
8702;SDS011;9002;42.708;23.186;2024-01-10T08:45:57;3.35;;;2.03;;
8702;SDS011;9002;42.708;23.186;2024-01-10T08:48:24;6.53;;;2.17;;
8702;SDS011;9002;42.708;23.186;2024-01-10T08:50:51;6.45;;;3.90;;
8702;SDS011;9002;42.708;23.186;2024-01-10T08:53:19;9.35;;;4.38;;
8702;SDS011;9002;42.708;23.186;2024-01-10T08:55:46;7.85;;;4.03;;
8702;SDS011;9002;42.708;23.186;2024-01-10T08:58:13;8.13;;;3.40;;
8702;SDS011;9002;42.708;23.186;2024-01-10T09:00:41;12.88;;;4.00;;
8702;SDS011;9002;42.708;23.186;2024-01-10T09:03:08;4.32;;;3.05;;
8702;SDS011;9002;42.708;23.186;2024-01-10T09:05:35;8.20;;;3.30;;
8702;SDS011;9002;42.708;23.186;2024-01-10T09:08:02;7.88;;;3.60;;
8702;SDS011;9002;42.708;23.186;2024-01-10T09:10:30;7.57;;;3.38;;
8702;SDS011;9002;42.708;23.186;2024-01-10T09:15:24;5.00;;;2.92;;
8702;SDS011;9002;42.708;23.186;2024-01-10T09:17:53;6.45;;;2.30;;
8702;SDS011;9002;42.708;23.186;2024-01-10T09:20:20;8.88;;;3.67;;
8702;SDS011;9002;42.708;23.186;2024-01-10T09:25:22;4.32;;;2.63;;
8702;SDS011;9002;42.708;23.186;2024-01-10T09:27:49;10.75;;;3.25;;
8702;SDS011;9002;42.708;23.186;2024-01-10T09:30:16;6.65;;;3.90;;
8702;SDS011;9002;42.708;23.186;2024-01-10T09:32:43;4.85;;;3.25;;
8702;SDS011;9002;42.708;23.186;2024-01-10T09:35:11;5.45;;;2.63;;
8702;SDS011;9002;42.708;23.186;2024-01-10T09:37:39;10.55;;;4.03;;
8702;SDS011;9002;42.708;23.186;2024-01-10T09:40:06;4.45;;;2.42;;
8702;SDS011;9002;42.708;23.186;2024-01-10T09:42:34;5.88;;;3.75;;
8702;SDS011;9002;42.708;23.186;2024-01-10T09:45:03;9.50;;;5.88;;
8702;SDS011;9002;42.708;23.186;2024-01-10T09:47:31;13.65;;;3.45;;
8702;SDS011;9002;42.708;23.186;2024-01-10T09:49:59;5.25;;;3.30;;
8702;SDS011;9002;42.708;23.186;2024-01-10T09:52:28;5.22;;;4.05;;
8702;SDS011;9002;42.708;23.186;2024-01-10T09:55:04;6.10;;;3.95;;
8702;SDS011;9002;42.708;23.186;2024-01-10T09:57:33;6.13;;;3.58;;
8702;SDS011;9002;42.708;23.186;2024-01-10T10:00:02;4.10;;;3.42;;
8702;SDS011;9002;42.708;23.186;2024-01-10T10:02:30;8.23;;;4.35;;
8702;SDS011;9002;42.708;23.186;2024-01-10T10:05:01;5.60;;;3.00;;
8702;SDS011;9002;42.708;23.186;2024-01-10T10:07:30;6.47;;;3.95;;
8702;SDS011;9002;42.708;23.186;2024-01-10T10:09:57;6.40;;;3.63;;
8702;SDS011;9002;42.708;23.186;2024-01-10T10:12:27;6.30;;;3.53;;
8702;SDS011;9002;42.708;23.186;2024-01-10T10:15:10;5.50;;;4.30;;
8702;SDS011;9002;42.708;23.186;2024-01-10T10:17:38;5.57;;;3.83;;
8702;SDS011;9002;42.708;23.186;2024-01-10T10:20:11;6.07;;;4.20;;
8702;SDS011;9002;42.708;23.186;2024-01-10T10:22:41;5.97;;;3.10;;
8702;SDS011;9002;42.708;23.186;2024-01-10T10:25:26;6.55;;;4.03;;
8702;SDS011;9002;42.708;23.186;2024-01-10T10:27:55;4.78;;;2.53;;
8702;SDS011;9002;42.708;23.186;2024-01-10T10:30:22;9.38;;;4.03;;
8702;SDS011;9002;42.708;23.186;2024-01-10T10:32:49;6.53;;;3.53;;
8702;SDS011;9002;42.708;23.186;2024-01-10T10:35:16;6.18;;;3.20;;
8702;SDS011;9002;42.708;23.186;2024-01-10T10:37:46;5.03;;;3.70;;
8702;SDS011;9002;42.708;23.186;2024-01-10T10:40:14;7.65;;;4.78;;
8702;SDS011;9002;42.708;23.186;2024-01-10T10:42:43;8.57;;;4.85;;
8702;SDS011;9002;42.708;23.186;2024-01-10T10:45:12;6.15;;;4.07;;
8702;SDS011;9002;42.708;23.186;2024-01-10T10:47:42;7.15;;;4.72;;
8702;SDS011;9002;42.708;23.186;2024-01-10T10:50:12;7.28;;;4.18;;
8702;SDS011;9002;42.708;23.186;2024-01-10T10:55:15;4.53;;;3.42;;
8702;SDS011;9002;42.708;23.186;2024-01-10T10:57:43;4.93;;;3.53;;
8702;SDS011;9002;42.708;23.186;2024-01-10T11:00:12;7.00;;;3.90;;
8702;SDS011;9002;42.708;23.186;2024-01-10T11:02:41;5.03;;;4.00;;
8702;SDS011;9002;42.708;23.186;2024-01-10T11:05:09;8.82;;;4.80;;
8702;SDS011;9002;42.708;23.186;2024-01-10T11:07:36;8.38;;;3.80;;
8702;SDS011;9002;42.708;23.186;2024-01-10T11:10:05;5.07;;;3.53;;
8702;SDS011;9002;42.708;23.186;2024-01-10T11:12:53;8.15;;;3.30;;
8702;SDS011;9002;42.708;23.186;2024-01-10T11:15:51;8.45;;;3.85;;
8702;SDS011;9002;42.708;23.186;2024-01-10T11:18:39;6.78;;;4.25;;
8702;SDS011;9002;42.708;23.186;2024-01-10T11:21:22;8.88;;;4.75;;
8702;SDS011;9002;42.708;23.186;2024-01-10T11:23:59;10.20;;;5.45;;
8702;SDS011;9002;42.708;23.186;2024-01-10T11:26:27;13.98;;;6.35;;
8702;SDS011;9002;42.708;23.186;2024-01-10T11:29:16;12.05;;;5.85;;
8702;SDS011;9002;42.708;23.186;2024-01-10T11:31:43;12.27;;;6.22;;
8702;SDS011;9002;42.708;23.186;2024-01-10T11:34:22;11.95;;;5.22;;
8702;SDS011;9002;42.708;23.186;2024-01-10T11:39:37;11.23;;;6.32;;
8702;SDS011;9002;42.708;23.186;2024-01-10T11:42:07;10.23;;;6.18;;
8702;SDS011;9002;42.708;23.186;2024-01-10T11:44:47;12.68;;;6.28;;
8702;SDS011;9002;42.708;23.186;2024-01-10T11:47:18;13.60;;;6.38;;
8702;SDS011;9002;42.708;23.186;2024-01-10T11:49:55;14.15;;;6.00;;
8702;SDS011;9002;42.708;23.186;2024-01-10T11:52:22;13.80;;;6.47;;
8702;SDS011;9002;42.708;23.186;2024-01-10T11:54:50;11.75;;;6.97;;
8702;SDS011;9002;42.708;23.186;2024-01-10T11:57:20;11.02;;;6.47;;
8702;SDS011;9002;42.708;23.186;2024-01-10T11:59:51;13.05;;;6.60;;
8702;SDS011;9002;42.708;23.186;2024-01-10T12:02:19;12.77;;;7.97;;
8702;SDS011;9002;42.708;23.186;2024-01-10T12:04:47;15.25;;;8.50;;
8702;SDS011;9002;42.708;23.186;2024-01-10T12:07:15;16.02;;;10.05;;
8702;SDS011;9002;42.708;23.186;2024-01-10T12:09:43;13.18;;;7.20;;
8702;SDS011;9002;42.708;23.186;2024-01-10T12:12:10;11.93;;;6.63;;
8702;SDS011;9002;42.708;23.186;2024-01-10T12:14:38;14.25;;;7.40;;
8702;SDS011;9002;42.708;23.186;2024-01-10T12:17:07;13.00;;;7.40;;
8702;SDS011;9002;42.708;23.186;2024-01-10T12:19:34;18.08;;;8.68;;
8702;SDS011;9002;42.708;23.186;2024-01-10T12:22:02;16.38;;;7.82;;
8702;SDS011;9002;42.708;23.186;2024-01-10T12:24:30;14.77;;;8.20;;
8702;SDS011;9002;42.708;23.186;2024-01-10T12:26:57;12.88;;;7.30;;
8702;SDS011;9002;42.708;23.186;2024-01-10T12:29:25;14.90;;;7.97;;
8702;SDS011;9002;42.708;23.186;2024-01-10T12:31:52;12.93;;;7.47;;
8702;SDS011;9002;42.708;23.186;2024-01-10T12:34:21;11.00;;;7.90;;
8702;SDS011;9002;42.708;23.186;2024-01-10T12:36:49;13.90;;;7.18;;
8702;SDS011;9002;42.708;23.186;2024-01-10T12:39:20;13.23;;;7.68;;
8702;SDS011;9002;42.708;23.186;2024-01-10T12:41:49;16.20;;;8.05;;
8702;SDS011;9002;42.708;23.186;2024-01-10T12:44:16;18.02;;;8.88;;
8702;SDS011;9002;42.708;23.186;2024-01-10T12:46:50;17.00;;;10.35;;
8702;SDS011;9002;42.708;23.186;2024-01-10T12:49:18;14.30;;;8.20;;
8702;SDS011;9002;42.708;23.186;2024-01-10T12:51:47;13.32;;;7.30;;
8702;SDS011;9002;42.708;23.186;2024-01-10T12:54:14;12.95;;;7.70;;
8702;SDS011;9002;42.708;23.186;2024-01-10T12:56:42;13.48;;;7.80;;
8702;SDS011;9002;42.708;23.186;2024-01-10T12:59:09;13.95;;;8.20;;
8702;SDS011;9002;42.708;23.186;2024-01-10T13:04:03;18.02;;;9.65;;
8702;SDS011;9002;42.708;23.186;2024-01-10T13:06:30;15.35;;;9.30;;
8702;SDS011;9002;42.708;23.186;2024-01-10T13:11:25;14.95;;;9.45;;
8702;SDS011;9002;42.708;23.186;2024-01-10T13:16:19;15.05;;;7.65;;
8702;SDS011;9002;42.708;23.186;2024-01-10T13:21:12;14.40;;;7.82;;
8702;SDS011;9002;42.708;23.186;2024-01-10T13:26:08;15.48;;;8.15;;
8702;SDS011;9002;42.708;23.186;2024-01-10T13:28:36;14.30;;;8.43;;
8702;SDS011;9002;42.708;23.186;2024-01-10T13:31:03;13.90;;;7.47;;
8702;SDS011;9002;42.708;23.186;2024-01-10T13:35:57;17.40;;;7.10;;
8702;SDS011;9002;42.708;23.186;2024-01-10T13:40:51;14.23;;;7.70;;
8702;SDS011;9002;42.708;23.186;2024-01-10T13:43:19;17.15;;;8.82;;
8702;SDS011;9002;42.708;23.186;2024-01-10T13:45:46;11.88;;;7.05;;
8702;SDS011;9002;42.708;23.186;2024-01-10T13:48:14;9.18;;;7.05;;
8702;SDS011;9002;42.708;23.186;2024-01-10T13:53:07;12.27;;;6.68;;
8702;SDS011;9002;42.708;23.186;2024-01-10T13:58:01;13.82;;;7.50;;
8702;SDS011;9002;42.708;23.186;2024-01-10T14:00:30;14.98;;;7.40;;
8702;SDS011;9002;42.708;23.186;2024-01-10T14:02:56;11.00;;;7.68;;
8702;SDS011;9002;42.708;23.186;2024-01-10T14:05:25;15.80;;;7.85;;
8702;SDS011;9002;42.708;23.186;2024-01-10T14:07:53;21.67;;;9.02;;
8702;SDS011;9002;42.708;23.186;2024-01-10T14:10:20;15.55;;;7.90;;
8702;SDS011;9002;42.708;23.186;2024-01-10T14:12:48;14.20;;;8.00;;
8702;SDS011;9002;42.708;23.186;2024-01-10T14:15:15;16.13;;;7.80;;
8702;SDS011;9002;42.708;23.186;2024-01-10T14:20:10;14.77;;;8.32;;
8702;SDS011;9002;42.708;23.186;2024-01-10T14:22:38;16.90;;;8.45;;
8702;SDS011;9002;42.708;23.186;2024-01-10T14:25:07;13.77;;;7.25;;
8702;SDS011;9002;42.708;23.186;2024-01-10T14:27:36;12.75;;;8.18;;
8702;SDS011;9002;42.708;23.186;2024-01-10T14:30:05;13.48;;;8.45;;
8702;SDS011;9002;42.708;23.186;2024-01-10T14:32:34;13.63;;;8.45;;
8702;SDS011;9002;42.708;23.186;2024-01-10T14:35:04;14.55;;;7.15;;
8702;SDS011;9002;42.708;23.186;2024-01-10T14:37:31;14.85;;;8.63;;
8702;SDS011;9002;42.708;23.186;2024-01-10T14:40:01;16.35;;;8.32;;
8702;SDS011;9002;42.708;23.186;2024-01-10T14:42:29;17.20;;;9.60;;
8702;SDS011;9002;42.708;23.186;2024-01-10T14:44:57;14.75;;;9.18;;
8702;SDS011;9002;42.708;23.186;2024-01-10T14:47:25;18.00;;;10.35;;
8702;SDS011;9002;42.708;23.186;2024-01-10T14:49:52;13.65;;;8.65;;
8702;SDS011;9002;42.708;23.186;2024-01-10T14:52:20;16.17;;;9.13;;
8702;SDS011;9002;42.708;23.186;2024-01-10T14:54:47;23.73;;;9.40;;
8702;SDS011;9002;42.708;23.186;2024-01-10T14:57:14;21.30;;;9.98;;
8702;SDS011;9002;42.708;23.186;2024-01-10T15:02:08;19.10;;;8.57;;
8702;SDS011;9002;42.708;23.186;2024-01-10T15:04:38;14.95;;;8.07;;
8702;SDS011;9002;42.708;23.186;2024-01-10T15:07:05;15.55;;;8.02;;
8702;SDS011;9002;42.708;23.186;2024-01-10T15:09:34;14.40;;;9.00;;
8702;SDS011;9002;42.708;23.186;2024-01-10T15:12:02;20.15;;;8.82;;
8702;SDS011;9002;42.708;23.186;2024-01-10T15:14:32;16.67;;;9.30;;
8702;SDS011;9002;42.708;23.186;2024-01-10T15:17:00;14.43;;;7.80;;
8702;SDS011;9002;42.708;23.186;2024-01-10T15:19:31;18.00;;;10.43;;
8702;SDS011;9002;42.708;23.186;2024-01-10T15:22:03;24.08;;;10.88;;
8702;SDS011;9002;42.708;23.186;2024-01-10T15:24:30;18.60;;;9.85;;
8702;SDS011;9002;42.708;23.186;2024-01-10T15:26:59;14.90;;;8.40;;
8702;SDS011;9002;42.708;23.186;2024-01-10T15:29:31;16.25;;;7.88;;
8702;SDS011;9002;42.708;23.186;2024-01-10T15:34:25;18.48;;;10.50;;
8702;SDS011;9002;42.708;23.186;2024-01-10T15:36:52;15.05;;;9.10;;
8702;SDS011;9002;42.708;23.186;2024-01-10T15:39:19;19.05;;;8.85;;
8702;SDS011;9002;42.708;23.186;2024-01-10T15:41:46;16.98;;;9.48;;
8702;SDS011;9002;42.708;23.186;2024-01-10T15:44:15;14.82;;;8.35;;
8702;SDS011;9002;42.708;23.186;2024-01-10T15:46:42;15.98;;;9.00;;
8702;SDS011;9002;42.708;23.186;2024-01-10T15:49:12;16.25;;;9.45;;
8702;SDS011;9002;42.708;23.186;2024-01-10T15:51:39;16.58;;;10.23;;
8702;SDS011;9002;42.708;23.186;2024-01-10T15:54:06;19.27;;;9.45;;
8702;SDS011;9002;42.708;23.186;2024-01-10T15:56:36;16.63;;;9.50;;
8702;SDS011;9002;42.708;23.186;2024-01-10T15:59:06;20.92;;;8.77;;
8702;SDS011;9002;42.708;23.186;2024-01-10T16:01:35;16.05;;;8.95;;
8702;SDS011;9002;42.708;23.186;2024-01-10T16:04:02;15.73;;;9.40;;
8702;SDS011;9002;42.708;23.186;2024-01-10T16:08:57;12.27;;;7.57;;
8702;SDS011;9002;42.708;23.186;2024-01-10T16:11:26;17.30;;;10.10;;
8702;SDS011;9002;42.708;23.186;2024-01-10T16:13:53;20.52;;;10.77;;
8702;SDS011;9002;42.708;23.186;2024-01-10T16:18:49;16.13;;;8.77;;